M I D A S
Marine Information and Data Acquisition System
Tripno 1199 of the Zeeleeuw from 2006-12-12 07:46:21 to 2006-12-12 12:17:22
Back to CruiseResearch ActivitiesStationsMapUnderway DataData graphs

EquipmentUnitsComment
TimeDGPSUTC
LatitudeDGPSDM.mWGS84
LongitudeDGPSDM.mWGS84
HeadingGyrodeg 
SOGDGPSknotsSpeed over ground
COGDGPSdegCourse over ground
DepthEcho soundermeters200 kHz
Missing or incorrect values are displayed as -999
Navigation data collected by the RV Zeeleeuw from 2006-12-12 07:45:14 to 2006-12-12 13:19:31
Time Latitude Longitude Heading SOG COG Depth
2006-12-12 07:47:23 51°13.649 2°55.911 116.4 5.2 294 -999
2006-12-12 07:48:23 51°13.689 2°55.8 135.4 4.5 309 10.3
2006-12-12 07:49:23 51°13.749 2°55.72 149.3 5 326 -999
2006-12-12 07:50:23 51°13.827 2°55.639 150.1 5.8 326 -999
2006-12-12 07:51:23 51°13.911 2°55.59 186.3 5.4 -999 -999
2006-12-12 07:52:22 51°13.969 2°55.615 220.1 1.4 20 6
2006-12-12 07:53:22 51°13.976 2°55.577 285.1 3 294 10.5
2006-12-12 07:54:21 51°14.056 2°55.479 332.4 9.8 328 11.2
2006-12-12 07:55:20 51°14.224 2°55.321 329.5 13 323 11.3
2006-12-12 07:56:20 51°14.376 2°55.068 318.2 13.4 314 11.2
2006-12-12 07:57:20 51°14.564 2°54.86 334.5 13.9 331 10.4
2006-12-12 07:58:20 51°14.771 2°54.685 338.1 14.2 333 10.2
2006-12-12 07:59:20 51°14.973 2°54.501 333.8 13.9 329 9.8
2006-12-12 08:00:20 51°15.173 2°54.317 334.4 14.1 330 9.6
2006-12-12 08:01:20 51°15.375 2°54.128 335 14.1 331 10.3
2006-12-12 08:02:20 51°15.578 2°53.941 336 14.1 331 11.1
2006-12-12 08:03:20 51°15.78 2°53.761 336.2 13.8 332 11.8
2006-12-12 08:04:20 51°15.981 2°53.581 335.3 14.1 331 12.1
2006-12-12 08:05:20 51°16.183 2°53.398 335.3 14 330 12.5
2006-12-12 08:06:20 51°16.384 2°53.217 336 13.8 331 12.8
2006-12-12 08:07:20 51°16.587 2°53.041 336.4 14 332 12.4
2006-12-12 08:08:20 51°16.791 2°52.868 335.9 13.8 332 10.4
2006-12-12 08:09:20 51°16.996 2°52.694 338.7 14.2 335 11
2006-12-12 08:10:20 51°17.223 2°52.61 357.6 14.1 352 10.9
2006-12-12 08:11:20 51°17.457 2°52.593 3.7 14.1 357 10.6
2006-12-12 08:12:20 51°17.69 2°52.579 5.6 13.9 358 10.9
2006-12-12 08:13:20 51°17.925 2°52.583 11.6 14.2 1 11.2
2006-12-12 08:14:20 51°18.148 2°52.683 36.3 14 33 11.2
2006-12-12 08:15:20 51°18.32 2°52.935 50.6 14.3 38 11.7
2006-12-12 08:16:20 51°18.498 2°53.176 48.2 14.1 38 12.4
2006-12-12 08:17:20 51°18.681 2°53.411 47.2 14.3 40 12.1
2006-12-12 08:18:20 51°18.862 2°53.645 45 14 37 12.4
2006-12-12 08:19:20 51°19.048 2°53.871 42.9 14.1 40 12.5
2006-12-12 08:20:20 51°19.238 2°54.089 42 13.9 33 12.8
2006-12-12 08:21:20 51°19.424 2°54.313 44.4 14 34 12.6
2006-12-12 08:22:20 51°19.607 2°54.542 42.6 13.9 44 13.1
2006-12-12 08:23:20 51°19.796 2°54.766 46.1 14.3 30 13.3
2006-12-12 08:24:20 51°19.981 2°54.995 43.9 13.9 42 13.6
2006-12-12 08:25:20 51°20.163 2°55.234 47.1 14 45 13.7
2006-12-12 08:26:20 51°20.343 2°55.484 51.4 14.3 41 13.8
2006-12-12 08:27:20 51°20.503 2°55.764 52 13.8 45 14
2006-12-12 08:28:20 51°20.66 2°56.044 56.6 14.4 42 13.9
2006-12-12 08:29:20 51°20.802 2°56.337 56.9 13.8 54 13.9
2006-12-12 08:30:20 51°20.949 2°56.626 57.8 14.4 43 13.8
2006-12-12 08:31:20 51°21.091 2°56.917 58.8 13.8 53 14
2006-12-12 08:32:20 51°21.227 2°57.221 63.2 14.5 55 14
2006-12-12 08:33:20 51°21.364 2°57.516 56.3 13.6 54 14
2006-12-12 08:34:20 51°21.495 2°57.818 58.6 13.3 56 13.9
2006-12-12 08:35:20 51°21.567 2°58.065 80.1 8.3 73 14.1
2006-12-12 08:36:20 51°21.604 2°58.242 79.4 6.2 68 13.8
2006-12-12 08:37:20 51°21.646 2°58.37 53.7 4.6 43 13.5
2006-12-12 08:38:20 51°21.719 2°58.38 335.7 4.2 336 13.8
2006-12-12 08:39:20 51°21.755 2°58.335 288.9 2.3 303 14.7
2006-12-12 08:40:20 51°21.743 2°58.269 231.9 3.1 228 14.1
2006-12-12 08:41:20 51°21.716 2°58.225 242.6 1.4 245 14.2
2006-12-12 08:42:20 51°21.71 2°58.202 252.5 0.8 250 14.1
2006-12-12 08:43:20 51°21.706 2°58.163 259.9 1.6 269 14.2
2006-12-12 08:44:20 51°21.708 2°58.156 257.5 0.7 66 13.9
2006-12-12 08:45:20 51°21.713 2°58.178 231.5 1.3 94 14.2
2006-12-12 08:46:20 51°21.719 2°58.2 208.2 0.9 88 14.3
2006-12-12 08:47:20 51°21.713 2°58.216 204.2 0.5 152 13
2006-12-12 08:48:20 51°21.697 2°58.211 224.3 1.4 223 13.8
2006-12-12 08:49:20 51°21.686 2°58.196 241.1 0.5 233 14.1
2006-12-12 08:50:20 51°21.683 2°58.188 249.6 0.2 286 14.1
2006-12-12 08:51:20 51°21.683 2°58.192 238.1 0.3 61 14
2006-12-12 08:52:20 51°21.68 2°58.197 235.5 0.4 129 14.1
2006-12-12 08:53:20 51°21.676 2°58.202 235.8 0.4 162 14
2006-12-12 08:54:20 51°21.672 2°58.199 246.6 0.1 220 13.8
2006-12-12 08:55:20 51°21.671 2°58.192 261.6 0.3 292 13.9
2006-12-12 08:56:20 51°21.677 2°58.175 271.9 0.9 302 14.1
2006-12-12 08:57:20 51°21.684 2°58.163 263.9 0.6 299 14.1
2006-12-12 08:58:20 51°21.691 2°58.151 266.8 0.8 315 14
2006-12-12 08:59:20 51°21.699 2°58.149 265.1 0.5 16 14
2006-12-12 09:00:20 51°21.706 2°58.161 262.2 0.9 55 14
2006-12-12 09:01:20 51°21.713 2°58.181 259.1 1 66 13.5
2006-12-12 09:02:20 51°21.716 2°58.198 242.1 0.6 66 13.9
2006-12-12 09:03:20 51°21.714 2°58.213 226.4 0.7 108 14
2006-12-12 09:04:20 51°21.707 2°58.225 211.8 0.7 165 13.7
2006-12-12 09:05:20 51°21.69 2°58.223 222.3 1.4 212 13.9
2006-12-12 09:06:20 51°21.678 2°58.209 242.3 0.6 245 14.2
2006-12-12 09:07:20 51°21.676 2°58.205 244.8 0.1 152 14
2006-12-12 09:08:20 51°21.675 2°58.211 247.5 0.6 89 13.4
2006-12-12 09:09:20 51°21.675 2°58.223 230.1 0.4 91 13.5
2006-12-12 09:10:20 51°21.668 2°58.225 228.8 0.7 188 13.6
2006-12-12 09:11:20 51°21.658 2°58.208 245.2 1.1 244 13.8
2006-12-12 09:12:20 51°21.658 2°58.185 269 0.7 291 14
2006-12-12 09:13:20 51°21.667 2°58.181 279 0.6 354 13.7
2006-12-12 09:14:20 51°21.682 2°58.178 288.9 0.9 354 13.7
2006-12-12 09:15:20 51°21.7 2°58.173 294.2 1.1 4 13.5
2006-12-12 09:16:20 51°21.719 2°58.165 294.7 1.5 344 13.9
2006-12-12 09:17:20 51°21.735 2°58.148 276.8 0.9 322 14
2006-12-12 09:18:20 51°21.738 2°58.137 243.7 0.2 246 13.9
2006-12-12 09:19:20 51°21.737 2°58.129 244.1 0.3 270 13.9
2006-12-12 09:20:20 51°21.734 2°58.121 248.9 0.4 244 13.9
2006-12-12 09:21:20 51°21.731 2°58.108 250 0.6 248 14.2
2006-12-12 09:22:20 51°21.73 2°58.099 250.9 0.3 207 14
2006-12-12 09:23:20 51°21.73 2°58.097 248.4 0.2 290 14.1
2006-12-12 09:24:20 51°21.73 2°58.102 243 0.3 89 13.7
2006-12-12 09:25:20 51°21.729 2°58.11 230.5 0.6 87 13.4
2006-12-12 09:26:20 51°21.729 2°58.123 210.3 0.4 128 14.1
2006-12-12 09:27:20 51°21.72 2°58.131 203.8 0.8 158 13.7
2006-12-12 09:28:20 51°21.709 2°58.136 206.1 0.4 172 14.1
2006-12-12 09:29:20 51°21.709 2°58.15 192 0.7 49 14.1
2006-12-12 09:30:20 51°21.718 2°58.167 163.8 0.9 92 13.9
2006-12-12 09:31:20 51°21.692 2°58.211 137.1 3.8 118 13.6
2006-12-12 09:32:20 51°21.693 2°58.335 68.6 5.5 60 13.3
2006-12-12 09:33:20 51°21.774 2°58.383 355.3 5.2 346 13
2006-12-12 09:34:20 51°21.822 2°58.307 283.7 3.3 286 14
2006-12-12 09:35:20 51°21.824 2°58.238 261.9 2.4 268 13.9
2006-12-12 09:36:20 51°21.816 2°58.187 243.3 2.7 243 14.2
2006-12-12 09:37:20 51°21.799 2°58.136 247.5 2 245 14.3
2006-12-12 09:38:20 51°21.789 2°58.104 241.3 1.1 249 13.9
2006-12-12 09:39:20 51°21.786 2°58.085 246.7 0.6 241 14.1
2006-12-12 09:40:20 51°21.784 2°58.077 240.9 0.3 279 13.8
2006-12-12 09:41:20 51°21.782 2°58.072 240.3 0.1 74 13.6
2006-12-12 09:42:20 51°21.783 2°58.075 232.2 0.4 128 14.1
2006-12-12 09:43:20 51°21.781 2°58.078 222.3 0.3 164 14.3
2006-12-12 09:44:20 51°21.774 2°58.074 229.6 0.8 218 14.4
2006-12-12 09:45:20 51°21.767 2°58.058 235.3 0.8 242 13.9
2006-12-12 09:46:20 51°21.761 2°58.039 247.5 0.6 241 13.6
2006-12-12 09:47:20 51°21.76 2°58.028 255.2 0.1 355 13.6
2006-12-12 09:48:20 51°21.762 2°58.031 250.2 0.5 72 13.9
2006-12-12 09:49:20 51°21.763 2°58.039 236.9 0.1 4 13.9
2006-12-12 09:50:20 51°21.761 2°58.046 222.8 0.4 123 13.4
2006-12-12 09:51:20 51°21.75 2°58.036 233.6 0.9 231 13.6
2006-12-12 09:52:20 51°21.744 2°58.014 259.4 0.7 261 13.9
2006-12-12 09:53:20 51°21.749 2°58.006 275 0.4 13 13.6
2006-12-12 09:54:20 51°21.754 2°58.017 293.2 1 54 14.1
2006-12-12 09:55:20 51°21.757 2°58.036 321.9 0.6 93 14
2006-12-12 09:56:20 51°21.754 2°58.054 353.2 0.4 110 13.9
2006-12-12 09:57:20 51°21.752 2°58.06 6.5 0.2 227 13.8
2006-12-12 09:58:20 51°21.754 2°58.063 14.9 0.5 55 13.7
2006-12-12 09:59:20 51°21.762 2°58.067 17.3 0.7 12 13.3
2006-12-12 10:00:20 51°21.775 2°58.07 12.5 0.9 349 13.8
2006-12-12 10:01:20 51°21.789 2°58.071 1 1 349 13.9
2006-12-12 10:02:20 51°21.802 2°58.069 344.4 0.8 359 13.9
2006-12-12 10:03:20 51°21.809 2°58.074 333.7 0.4 115 13.9
2006-12-12 10:04:21 51°21.792 2°58.091 353.8 1.3 165 14
2006-12-12 10:05:20 51°21.784 2°58.096 7.8 0.5 94 13.7
2006-12-12 10:06:20 51°21.786 2°58.098 9.8 0.3 35 13.6
2006-12-12 10:07:20 51°21.793 2°58.101 4.7 0.5 357 13.8
2006-12-12 10:08:20 51°21.803 2°58.104 351.2 0.6 15 14.1
2006-12-12 10:09:20 51°21.81 2°58.107 342 0.5 18 14.1
2006-12-12 10:10:20 51°21.814 2°58.116 343.3 0.4 60 13.9
2006-12-12 10:11:20 51°21.821 2°58.119 343.3 2.1 336 13.6
2006-12-12 10:12:20 51°21.845 2°58.011 263 6.2 256 14.2
2006-12-12 10:13:20 51°21.736 2°57.902 196.6 9.6 198 13.5
2006-12-12 10:14:20 51°21.594 2°57.772 202 9.9 201 12.7
2006-12-12 10:15:20 51°21.467 2°57.598 238 10.7 238 13.9
2006-12-12 10:16:20 51°21.408 2°57.442 242.1 3.8 248 13.4
2006-12-12 10:17:21 51°21.408 2°57.422 289.7 0.2 21 -999
2006-12-12 10:18:22 51°21.412 2°57.429 314.1 0.5 83 13.3
2006-12-12 10:19:21 51°21.414 2°57.437 327.3 0.3 81 13.2
2006-12-12 10:20:20 51°21.414 2°57.446 338.6 0.4 97 13.3
2006-12-12 10:21:20 51°21.414 2°57.451 349.3 0.3 63 13.7
2006-12-12 10:22:20 51°21.415 2°57.456 359.8 0.3 35 13.4
2006-12-12 10:23:20 51°21.422 2°57.458 1.3 0.5 22 13.1
2006-12-12 10:24:20 51°21.432 2°57.458 354.3 0.7 3 13.8
2006-12-12 10:25:20 51°21.443 2°57.457 351 0.7 356 13.8
2006-12-12 10:26:20 51°21.447 2°57.458 342.8 0.6 121 13.7
2006-12-12 10:27:21 51°21.44 2°57.466 359 0.1 215 13
2006-12-12 10:28:20 51°21.444 2°57.467 3.6 0.3 331 13.3
2006-12-12 10:29:20 51°21.451 2°57.465 358.4 0.6 20 13.4
2006-12-12 10:30:20 51°21.461 2°57.463 349.1 0.6 346 13.2
2006-12-12 10:31:20 51°21.471 2°57.46 339 0.7 1 13.3
2006-12-12 10:32:20 51°21.478 2°57.459 332.7 0.5 4 13.8
2006-12-12 10:33:21 51°21.471 2°57.469 345.4 1.6 161 -999
2006-12-12 10:34:24 51°21.434 2°57.464 19 1.9 199 -999
2006-12-12 10:35:22 51°21.442 2°57.46 8.9 2.7 355 13.4
2006-12-12 10:36:21 51°21.486 2°57.439 331.6 2.1 333 14
2006-12-12 10:37:21 51°21.498 2°57.433 328 0.4 358 13.9
2006-12-12 10:38:20 51°21.503 2°57.436 339.6 0.2 322 13.7
2006-12-12 10:39:20 51°21.508 2°57.438 342 0.4 339 13.4
2006-12-12 10:40:20 51°21.516 2°57.438 340.5 0.5 11 13.6
2006-12-12 10:41:20 51°21.522 2°57.436 336.4 0.4 332 14
2006-12-12 10:42:20 51°21.529 2°57.438 334.5 0.4 23 13.8
2006-12-12 10:43:20 51°21.532 2°57.442 335.1 0.2 29 13.6
2006-12-12 10:44:20 51°21.534 2°57.447 340.5 0.2 77 13.9
2006-12-12 10:45:20 51°21.536 2°57.451 338.6 0.1 7 13.7
2006-12-12 10:46:20 51°21.554 2°57.445 350.5 3.1 346 13.8
2006-12-12 10:47:20 51°21.615 2°57.483 56.6 4.4 60 14.1
2006-12-12 10:48:20 51°21.594 2°57.583 141.5 4.4 151 13.5
2006-12-12 10:49:20 51°21.514 2°57.583 198.5 5.5 206 13.1
2006-12-12 10:50:20 51°21.458 2°57.47 249.1 5.3 253 13.7
2006-12-12 10:51:20 51°21.441 2°57.376 247.9 1.9 262 13.2
2006-12-12 10:52:22 51°21.446 2°57.363 269 0.4 352 -999
2006-12-12 10:53:23 51°21.451 2°57.364 284.3 0.2 13 13.5
2006-12-12 10:54:22 51°21.457 2°57.366 298 0.1 346 13.4
2006-12-12 10:55:21 51°21.46 2°57.371 315.5 0.2 58 13.4
2006-12-12 10:56:20 51°21.462 2°57.374 330.6 0.6 335 13.5
2006-12-12 10:57:20 51°21.472 2°57.367 325.7 0.6 356 13.7
2006-12-12 10:58:20 51°21.476 2°57.369 331.6 0.1 97 13.6
2006-12-12 10:59:20 51°21.477 2°57.374 338.5 0.2 143 13.2
2006-12-12 11:00:20 51°21.477 2°57.379 348.5 0.1 127 13.5
2006-12-12 11:01:20 51°21.477 2°57.382 352.6 0.2 40 13.7
2006-12-12 11:02:20 51°21.48 2°57.383 348.3 0.3 31 13.9
2006-12-12 11:03:20 51°21.484 2°57.384 344 0.5 15 13.7
2006-12-12 11:04:20 51°21.499 2°57.371 322.4 1.1 322 13.5
2006-12-12 11:05:20 51°21.51 2°57.357 316 0.7 325 13.8
2006-12-12 11:06:20 51°21.519 2°57.35 315.4 0.5 345 13.6
2006-12-12 11:07:20 51°21.526 2°57.347 317.8 0.4 14 13.6
2006-12-12 11:08:20 51°21.53 2°57.351 331 0.3 38 13.6
2006-12-12 11:09:20 51°21.529 2°57.357 345.8 0.5 163 13.7
2006-12-12 11:10:20 51°21.515 2°57.361 0.7 1.7 181 13.3
2006-12-12 11:11:24 51°21.471 2°57.346 23.8 3 202 -999
2006-12-12 11:12:23 51°21.445 2°57.321 46.6 0.4 70 13.4
2006-12-12 11:13:22 51°21.463 2°57.383 73.2 2.8 67 13.5
2006-12-12 11:14:22 51°21.469 2°57.394 83.4 0.3 332 13.4
2006-12-12 11:15:20 51°21.473 2°57.392 92.1 0.1 355 13.3
2006-12-12 11:16:20 51°21.477 2°57.395 104.6 0.2 57 13.5
2006-12-12 11:17:20 51°21.479 2°57.4 114.3 0.2 77 13.4
2006-12-12 11:18:20 51°21.479 2°57.405 121.6 0.2 100 13.3
2006-12-12 11:19:20 51°21.478 2°57.41 124.8 0.2 141 13.3
2006-12-12 11:20:20 51°21.477 2°57.413 129.8 0.1 118 13.3
2006-12-12 11:21:20 51°21.476 2°57.416 136.2 0.2 173 13
2006-12-12 11:22:20 51°21.473 2°57.417 148 0.2 173 13.5
2006-12-12 11:23:20 51°21.469 2°57.418 155.5 0.2 173 13.5
2006-12-12 11:24:20 51°21.468 2°57.417 154 0.2 228 13.4
2006-12-12 11:25:20 51°21.467 2°57.419 152.4 0.1 157 13.1
2006-12-12 11:26:20 51°21.44 2°57.429 175.2 4 182 13.5
2006-12-12 11:27:20 51°21.333 2°57.35 210.3 9.9 210 12.8
2006-12-12 11:28:20 51°21.159 2°57.165 222.5 13.6 228 12.5
2006-12-12 11:29:20 51°21.013 2°56.885 233.7 13.7 231 12.3
2006-12-12 11:30:20 51°20.871 2°56.603 233.3 13.7 232 12.6
2006-12-12 11:31:20 51°20.729 2°56.317 233.2 13.9 231 12.5
2006-12-12 11:32:20 51°20.588 2°56.028 234.7 13.6 232 12.6
2006-12-12 11:33:20 51°20.45 2°55.737 234.9 13.6 231 12.3
2006-12-12 11:34:20 51°20.312 2°55.448 234.4 13.4 230 11.8
2006-12-12 11:35:20 51°20.174 2°55.163 232.2 13.6 228 12.2
2006-12-12 11:36:20 51°20.02 2°54.896 229.8 13.5 227 12
2006-12-12 11:37:20 51°19.864 2°54.628 228.7 13.8 226 12.4
2006-12-12 11:38:20 51°19.696 2°54.382 220.7 13.9 220 12
2006-12-12 11:39:20 51°19.517 2°54.154 218.6 13.7 218 11.5
2006-12-12 11:40:20 51°19.335 2°53.93 217.3 14 217 11.4
2006-12-12 11:41:20 51°19.152 2°53.711 218.1 13.7 218 11.3
2006-12-12 11:42:20 51°18.968 2°53.49 219.5 13.5 216 11.1
2006-12-12 11:43:20 51°18.784 2°53.271 217.9 13.8 216 10.7
2006-12-12 11:44:20 51°18.601 2°53.055 217.7 13.8 216 10.7
2006-12-12 11:45:20 51°18.413 2°52.846 214.5 13.6 216 10.6
2006-12-12 11:46:20 51°18.215 2°52.662 207.1 13.8 207 9.9
2006-12-12 11:47:20 51°18.002 2°52.529 197.8 14.1 196 9.8
2006-12-12 11:48:20 51°17.781 2°52.437 193.8 13.7 192 9.5
2006-12-12 11:49:20 51°17.558 2°52.349 193 13.7 191 9.5
2006-12-12 11:50:20 51°17.33 2°52.324 179.6 13.8 180 9.6
2006-12-12 11:51:20 51°17.102 2°52.328 179.9 13.9 175 9.1
2006-12-12 11:52:20 51°16.878 2°52.354 171.2 13.2 172 8.8
2006-12-12 11:53:20 51°16.656 2°52.421 164.1 13.8 162 9.6
2006-12-12 11:54:20 51°16.437 2°52.513 163.9 13.6 163 11
2006-12-12 11:55:20 51°16.22 2°52.595 164.3 13.6 169 11.4
2006-12-12 11:56:20 51°16.01 2°52.707 158.6 13.7 161 11
2006-12-12 11:57:20 51°15.809 2°52.853 154.5 13.5 152 10.8
2006-12-12 11:58:20 51°15.607 2°53.001 155 13.9 159 10.2
2006-12-12 11:59:20 51°15.414 2°53.164 148.7 13.5 148 9.6
2006-12-12 12:00:20 51°15.228 2°53.341 147.5 13.3 149 9.1
2006-12-12 12:01:20 51°15.041 2°53.519 150 12.9 145 8.7
2006-12-12 12:02:20 51°14.865 2°53.718 142.1 12.8 142 8.4
2006-12-12 12:03:20 51°14.757 2°54.004 112.7 13.1 110 8.8
2006-12-12 12:04:20 51°14.663 2°54.312 117.9 12.8 116 9.1
2006-12-12 12:05:20 51°14.557 2°54.613 119.7 13.1 121 9
2006-12-12 12:06:20 51°14.435 2°54.886 125.5 11.6 125 9.7
2006-12-12 12:07:20 51°14.339 2°55.112 128.4 9.8 125 9.2
2006-12-12 12:08:20 51°14.242 2°55.291 136.6 7.8 136 9.6
2006-12-12 12:09:20 51°14.145 2°55.405 153.8 6.9 151 9.8
2006-12-12 12:10:20 51°14.04 2°55.482 156.6 6.9 155 9.4
2006-12-12 12:11:20 51°13.937 2°55.557 158.6 6.9 157 9.9
2006-12-12 12:12:20 51°13.833 2°55.633 156.9 6.8 154 9.2
2006-12-12 12:13:20 51°13.75 2°55.719 141.5 5.1 137 9.4
2006-12-12 12:14:23 51°13.696 2°55.815 132.9 4.3 131 8.6
2006-12-12 12:15:22 51°13.654 2°55.901 127.4 3.9 124 8.8
2006-12-12 12:16:21 51°13.624 2°55.982 121.8 3.3 117 8.9
2006-12-12 12:17:20 51°13.607 2°56.052 112.7 2.6 108 7.7